Latest Weather Observations for Norah Head

IDN60901

Issued at 4:21 pm EST Sunday 23 September 2018 (issued every 10 minutes, with the page automatically refreshed every 10 minutes)

About weather observations | Map of Sydney area stations | Latest observations for Sydney area | Other Formats
Station Details ID: 061366 Name: NORAH HEAD AWS Lat: -33.28 Lon: 151.58 Height: 18.8 m
Data from the previous 72 hours. | See also: Recent months at Norah Head
Date/Time
EST
Temp
°C
App
Temp
°C
Dew
Point
°C
Rel
Hum
%
Delta-T
°C
Wind Press
QNH
hPa
Press
MSL
hPa
Rain since
9am
mm
Dir  Spd
km/h
Gust
km/h
Spd
kts
Gust
kts
23/04:00pm 17.7 11.9 14.0 79 2.1 S 37 43 20 23 1023.1 1023.0 0.0
23/03:30pm 18.0 12.7 14.3 79 2.1 S 35 43 19 23 1023.1 1023.0 0.0
23/03:00pm 17.8 11.9 13.5 76 2.4 S 37 43 20 23 1022.9 1022.8 0.0
23/02:30pm 17.8 12.7 14.7 82 1.8 S 35 43 19 23 1023.3 1023.2 0.0
23/02:00pm 17.9 12.4 14.8 82 1.8 S 37 44 20 24 1023.7 1023.6 0.0
23/01:30pm 17.9 12.8 14.8 82 1.8 S 35 44 19 24 1023.9 1023.8 0.0
23/01:00pm 17.9 12.7 14.6 81 1.9 SSW 35 44 19 24 1024.1 1024.0 0.0
23/12:30pm 17.9 13.3 14.6 81 1.9 SSW 32 43 17 23 1024.2 1024.1 0.0
23/12:00pm 18.1 14.0 14.8 81 1.9 SSW 30 43 16 23 1024.6 1024.5 0.0
23/11:30am 18.4 14.8 14.1 76 2.5 SSW 26 35 14 19 1024.8 1024.7 0.0
23/11:00am 18.1 14.9 14.2 78 2.2 SSW 24 32 13 17 1025.1 1025.0 0.0
23/10:30am 17.7 14.7 13.8 78 2.2 SSW 22 33 12 18 1025.3 1025.3 0.0
23/10:00am 17.6 14.6 13.7 78 2.2 SSW 22 32 12 17 1025.3 1025.3 0.0
23/09:30am 18.2 15.8 14.3 78 2.2 SSW 20 30 11 16 1025.3 1025.3 0.0
23/09:00am 17.0 13.9 13.5 80 2.0 SW 22 28 12 15 1025.1 1025.0 0.0
23/08:30am 16.4 12.8 12.9 80 1.9 SW 24 33 13 18 1025.0 1024.9 0.0
23/08:00am 15.9 12.0 13.4 85 1.4 SW 26 35 14 19 1025.1 1025.0 0.0
23/07:30am 16.1 12.0 13.9 87 1.2 SSW 28 41 15 22 1025.1 1025.0 0.0
23/07:00am 16.2 11.7 13.9 86 1.3 SSW 30 41 16 22 1024.7 1024.6 0.0
23/06:30am 15.6 10.6 13.4 87 1.2 SSW 32 43 17 23 1024.5 1024.4 0.0
23/06:00am 15.4 10.4 13.4 88 1.1 SSW 32 41 17 22 1024.0 1023.9 0.0
23/05:30am 15.3 11.2 13.8 91 0.8 SSW 28 37 15 20 1023.7 1023.6 0.0
23/05:00am 15.3 12.9 14.5 95 0.5 SSW 20 30 11 16 1023.3 1023.2 0.0
23/04:30am 14.6 13.2 13.3 92 0.7 SW 13 20 7 11 1023.0 1022.9 0.0
23/04:00am 14.7 12.9 12.2 85 1.4 SW 13 19 7 10 1022.9 1022.8 0.0
23/03:30am 14.9 12.2 10.3 74 2.4 SW 15 20 8 11 1022.6 1022.5 0.0
23/03:00am 15.2 11.7 8.9 66 3.2 SW 17 24 9 13 1022.5 1022.4 0.0
23/02:30am 15.9 12.3 8.2 60 3.9 WSW 17 22 9 12 1022.6 1022.5 0.0
23/02:00am 16.2 12.9 8.2 59 4.0 SW 15 20 8 11 1022.7 1022.6 0.0
23/01:30am 15.4 12.5 9.5 68 3.1 WSW 15 20 8 11 1023.1 1023.0 0.0
23/01:00am 14.7 12.8 10.5 76 2.2 WSW 11 15 6 8 1023.5 1023.4 0.0
23/12:30am 14.6 12.3 11.9 84 1.5 WSW 15 19 8 10 1023.6 1023.5 0.0
23/12:00am 14.0 13.0 12.4 90 0.9 WSW 9 13 5 7 1023.6 1023.5 0.0
 
Date/Time
EST
Temp
°C
App
Temp
°C
Dew
Point
°C
Rel
Hum
%
Delta-T
°C
Wind Press
QNH
hPa
Press
MSL
hPa
Rain since
9am
mm
Dir  Spd
km/h
Gust
km/h
Spd
kts
Gust
kts
22/11:30pm 14.3 14.3 12.5 89 1.0 WSW 4 7 2 4 1023.4 1023.3 0.0
22/11:00pm 14.7 15.7 13.2 91 0.8 CALM 0 0 0 0 1023.4 1023.3 0.0
22/10:30pm 15.1 16.2 13.5 90 0.9 CALM 0 0 0 0 1023.4 1023.3 0.0
22/10:00pm 15.7 17.0 14.2 91 0.8 CALM 0 0 0 0 1023.5 1023.4 0.0
22/09:30pm 15.8 16.0 14.2 90 0.9 NW 6 6 3 3 1023.6 1023.5 0.0
22/09:00pm 16.6 16.3 15.5 93 0.6 N 11 13 6 7 1023.5 1023.4 0.0
22/08:30pm 17.0 15.2 15.5 91 0.9 NNE 19 22 10 12 1023.4 1023.3 0.0
22/08:00pm 17.0 15.7 15.7 92 0.8 N 17 20 9 11 1023.4 1023.3 0.0
22/07:30pm 17.1 15.4 15.8 92 0.8 NNE 19 24 10 13 1023.1 1023.0 0.0
22/07:00pm 17.2 15.2 15.5 90 1.0 NNE 20 24 11 13 1023.0 1022.9 0.0
22/06:30pm 17.2 14.3 15.2 88 1.2 NNE 24 28 13 15 1022.8 1022.7 0.0
22/06:00pm 17.4 14.1 15.0 86 1.4 NE 26 32 14 17 1022.6 1022.5 0.0
22/05:30pm 17.5 13.7 14.8 84 1.6 NE 28 33 15 18 1022.5 1022.4 0.0
22/05:00pm 17.6 13.5 14.9 84 1.6 NE 30 33 16 18 1022.3 1022.2 0.0
22/04:30pm 18.1 14.3 14.8 81 1.9 NE 28 33 15 18 1022.3 1022.2 0.0
22/04:00pm 18.7 14.9 14.6 77 2.4 NE 28 32 15 17 1022.2 1022.1 0.0
22/03:30pm 18.9 15.4 14.6 76 2.5 NE 26 32 14 17 1022.4 1022.3 0.0
22/03:00pm 18.8 14.2 13.6 72 3.0 NE 30 33 16 18 1022.5 1022.4 0.0
22/02:30pm 20.1 16.2 13.3 65 3.9 NE 26 32 14 17 1022.9 1022.8 0.0
22/02:00pm 21.2 18.1 14.4 65 4.0 NE 24 30 13 16 1023.3 1023.2 0.0
22/01:30pm 20.3 16.5 12.3 60 4.5 NE 24 28 13 15 1023.8 1023.7 0.0
22/01:00pm 21.7 18.8 14.1 62 4.4 NE 22 26 12 14 1024.3 1024.2 0.0
22/12:30pm 20.8 17.9 12.8 60 4.5 NE 20 24 11 13 1024.9 1024.8 0.0
22/12:00pm 21.4 18.7 11.7 54 5.4 ENE 17 19 9 10 1025.5 1025.5 0.0
22/11:30am 23.3 21.5 13.2 53 5.8 ENE 15 17 8 9 1026.1 1026.1 0.0
22/11:00am 22.0 20.3 12.3 54 5.5 NE 13 15 7 8 1026.7 1026.7 0.0
22/10:30am 20.8 19.1 11.2 54 5.3 NE 11 13 6 7 1027.2 1027.2 0.0
22/10:00am 19.0 18.2 11.1 60 4.3 NNE 6 9 3 5 1027.4 1027.4 0.0
22/09:30am 19.3 18.3 11.1 59 4.5 NE 7 9 4 5 1027.7 1027.7 0.0
22/09:00am 18.2 17.1 10.8 62 4.0 N 7 9 4 5 1027.8 1027.8 0.0
22/08:30am 17.3 16.5 10.9 66 3.4 N 6 7 3 4 1027.8 1027.8 0.0
22/08:00am 16.4 15.5 10.7 69 3.0 N 6 7 3 4 1027.8 1027.8 0.0
22/07:30am 15.1 14.0 10.1 72 2.6 NW 6 9 3 5 1027.9 1027.9 0.0
22/07:00am 13.6 12.5 9.8 78 1.9 WNW 6 11 3 6 1027.9 1027.9 0.0
22/06:30am 12.6 11.5 10.0 84 1.3 WNW 6 9 3 5 1027.5 1027.5 0.0
22/06:00am 11.6 9.8 9.5 87 1.1 W 9 15 5 8 1027.2 1027.2 0.0
22/05:30am 11.6 9.8 9.3 86 1.2 W 9 13 5 7 1026.9 1026.9 0.0
22/05:00am 12.1 11.3 9.7 85 1.2 WNW 4 7 2 4 1026.5 1026.5 0.0
22/04:30am 12.2 12.1 9.6 84 1.3 CALM 0 4 0 2 1026.4 1026.4 0.0
22/04:00am 12.3 11.6 9.9 85 1.2 WNW 4 6 2 3 1026.3 1026.3 0.0
22/03:30am 12.5 11.8 10.0 85 1.3 WNW 4 4 2 2 1026.3 1026.3 0.0
22/03:00am 12.6 11.9 10.0 84 1.3 WNW 4 4 2 2 1026.5 1026.5 0.0
22/02:30am 12.9 11.8 10.8 87 1.1 W 7 9 4 5 1026.7 1026.7 0.0
22/02:00am 13.4 12.4 10.4 82 1.6 WNW 6 6 3 3 1026.9 1026.9 0.0
22/01:30am 13.4 12.9 10.8 84 1.4 NW 4 6 2 3 1027.2 1027.2 0.0
22/01:00am 13.5 12.5 10.9 84 1.4 N 7 9 4 5 1027.3 1027.3 0.0
22/12:30am 13.6 12.3 11.1 85 1.3 N 9 11 5 6 1027.4 1027.4 0.0
22/12:00am 13.2 12.4 11.1 87 1.1 NNW 6 9 3 5 1027.4 1027.4 0.0
 
Date/Time
EST
Temp
°C
App
Temp
°C
Dew
Point
°C
Rel
Hum
%
Delta-T
°C
Wind Press
QNH
hPa
Press
MSL
hPa
Rain since
9am
mm
Dir  Spd
km/h
Gust
km/h
Spd
kts
Gust
kts
21/11:30pm 13.4 12.4 11.1 86 1.2 N 7 9 4 5 1027.4 1027.4 0.0
21/11:00pm 13.4 11.9 10.4 82 1.5 NNW 9 11 5 6 1027.6 1027.6 0.0
21/10:30pm 13.8 12.3 10.6 81 1.7 NW 9 13 5 7 1027.7 1027.7 0.0
21/10:00pm 14.4 12.5 10.4 77 2.1 NW 11 15 6 8 1027.5 1027.5 0.0
21/09:30pm 15.4 12.2 11.4 77 2.1 N 19 22 10 12 1027.3 1027.3 0.0
21/09:00pm 16.1 11.6 11.5 74 2.5 NNE 26 30 14 16 1027.3 1027.3 0.0
21/08:30pm 15.9 11.8 11.3 74 2.5 NNE 24 28 13 15 1027.2 1027.2 0.0
21/08:00pm 15.8 11.7 11.4 75 2.4 NE 24 28 13 15 1027.0 1027.0 0.0
21/07:30pm 15.2 11.3 10.8 75 2.3 NE 22 26 12 14 1026.7 1026.7 0.0
21/07:00pm 15.3 11.4 10.7 74 2.4 NE 22 26 12 14 1026.5 1026.5 0.0
21/06:30pm 15.7 11.3 10.5 71 2.7 ENE 24 28 13 15 1026.2 1026.2 0.0
21/06:00pm 16.0 11.5 10.1 68 3.1 ENE 24 28 13 15 1025.8 1025.8 0.0
21/05:30pm 16.3 11.8 10.2 67 3.2 ENE 24 26 13 14 1025.6 1025.6 0.0
21/05:00pm 16.7 12.3 8.9 60 4.0 ENE 22 26 12 14 1025.3 1025.3 0.0
21/04:30pm 17.8 13.0 8.9 56 4.6 ENE 24 28 13 15 1025.2 1025.1 0.0
21/04:00pm 17.7 13.3 8.8 56 4.6 ENE 22 26 12 14 1025.1 1025.0 0.0
21/03:30pm 18.3 14.3 9.1 55 4.8 ENE 20 24 11 13 1025.1 1025.0 0.0
21/03:00pm 18.3 14.3 9.1 55 4.8 ENE 20 24 11 13 1025.2 1025.1 0.0
21/02:30pm 18.7 14.7 8.9 53 5.1 ENE 20 24 11 13 1025.3 1025.3 0.0
21/02:00pm 18.9 15.0 8.6 51 5.3 ENE 19 22 10 12 1025.7 1025.7 0.0
21/01:30pm 18.3 14.3 8.3 52 5.1 E 19 20 10 11 1025.9 1025.9 0.0
21/01:00pm 18.5 14.6 8.5 52 5.1 E 19 20 10 11 1026.1 1026.1 0.0
21/12:30pm 18.2 14.9 8.2 52 5.1 E 15 17 8 9 1026.3 1026.3 0.0
21/12:00pm 18.4 15.8 7.8 50 5.4 E 11 15 6 8 1026.8 1026.8 0.0
21/11:30am 18.8 16.6 7.9 49 5.6 ESE 9 13 5 7 1027.0 1027.0 0.0
21/11:00am 18.3 16.5 7.1 48 5.6 E 6 7 3 4 1027.4 1027.4 0.0
21/10:30am 18.4 16.4 6.3 45 6.0 NE 6 7 3 4 1027.7 1027.7 0.0
21/10:00am 18.1 16.7 7.2 49 5.4 WNW 4 9 2 5 1027.8 1027.8 0.0
21/09:30am 17.8 16.0 7.0 49 5.4 NW 6 11 3 6 1027.9 1027.9 0.0
21/09:00am 17.2 15.4 7.0 51 5.0 NW 6 9 3 5 1027.8 1027.8 0.0
21/08:30am 16.0 14.3 7.7 58 4.2 W 6 11 3 6 1027.7 1027.7 0.0
21/08:00am 14.5 12.7 7.1 61 3.6 WNW 6 9 3 5 1027.4 1027.4 0.0
21/07:30am 13.0 10.1 6.6 65 3.1 W 11 15 6 8 1027.1 1027.1 0.0
21/07:00am 11.9 9.0 6.4 69 2.6 W 11 15 6 8 1026.8 1026.8 0.0
21/06:30am 11.2 7.4 5.9 70 2.5 W 15 19 8 10 1026.4 1026.4 0.0
21/06:00am 10.6 6.9 6.2 74 2.0 W 15 19 8 10 1026.1 1026.1 0.0
21/05:30am 10.4 6.7 6.5 77 1.8 W 15 19 8 10 1025.8 1025.8 0.0
21/05:00am 10.5 6.7 5.9 73 2.1 W 15 20 8 11 1025.4 1025.4 0.0
21/04:30am 10.4 6.7 6.5 77 1.8 W 15 19 8 10 1025.2 1025.1 0.0
21/04:00am 10.4 6.6 5.6 72 2.2 W 15 22 8 12 1024.9 1024.8 0.0
21/03:30am 10.2 6.5 6.5 78 1.7 W 15 19 8 10 1024.6 1024.5 0.0
21/03:00am 10.7 7.1 6.6 76 1.9 W 15 20 8 11 1024.6 1024.5 0.0
21/02:30am 10.7 7.0 6.1 73 2.1 W 15 20 8 11 1024.6 1024.5 0.0
21/02:00am 10.4 6.7 6.5 77 1.8 W 15 20 8 11 1024.8 1024.7 0.0
21/01:30am 10.4 7.2 6.7 78 1.7 W 13 19 7 10 1025.0 1024.9 0.0
21/01:00am 10.7 7.1 6.8 77 1.8 W 15 20 8 11 1025.1 1025.0 0.0
21/12:30am 10.9 7.3 6.6 75 2.0 W 15 19 8 10 1024.8 1024.7 0.0
21/12:00am 11.2 7.7 7.1 76 1.9 W 15 20 8 11 1024.7 1024.6 0.0
 
Date/Time
EST
Temp
°C
App
Temp
°C
Dew
Point
°C
Rel
Hum
%
Delta-T
°C
Wind Press
QNH
hPa
Press
MSL
hPa
Rain since
9am
mm
Dir  Spd
km/h
Gust
km/h
Spd
kts
Gust
kts
20/11:30pm 11.4 8.4 7.5 77 1.9 W 13 17 7 9 1024.5 1024.4 0.0
20/11:00pm 11.6 8.6 7.5 76 2.0 W 13 17 7 9 1024.5 1024.4 0.0
20/10:30pm 11.4 8.2 6.9 74 2.1 W 13 17 7 9 1024.5 1024.4 0.0
20/10:00pm 11.9 8.8 7.2 73 2.2 W 13 17 7 9 1024.3 1024.2 0.0
20/09:30pm 12.6 10.3 7.3 70 2.6 W 9 13 5 7 1024.1 1024.0 0.0
20/09:00pm 14.1 11.7 6.9 62 3.5 S 9 13 5 7 1023.8 1023.7 0.0
20/08:30pm 14.1 10.9 6.9 62 3.5 S 13 15 7 8 1023.4 1023.3 0.0
20/08:00pm 14.2 10.6 6.6 60 3.7 SSE 15 19 8 10 1023.1 1023.0 0.0
20/07:30pm 14.4 10.4 6.7 60 3.7 S 17 22 9 12 1022.8 1022.7 0.0
20/07:00pm 14.3 10.0 7.1 62 3.5 S 19 24 10 13 1022.3 1022.2 0.0
20/06:30pm 14.2 10.3 7.0 62 3.5 S 17 22 9 12 1021.6 1021.5 0.0
20/06:00pm 14.0 10.3 6.4 60 3.6 SSE 15 19 8 10 1021.2 1021.1 0.0
20/05:30pm 14.2 10.4 5.8 57 4.0 SSE 15 19 8 10 1020.6 1020.5 0.0
20/05:00pm 14.5 9.8 5.0 53 4.4 S 19 24 10 13 1020.3 1020.2 0.0
20/04:30pm 15.3 10.4 5.2 51 4.8 S 20 24 11 13 1019.8 1019.7 0.0

Latest Capital City Observations: Canberra | Sydney | Melbourne | Brisbane | Adelaide | Perth | Hobart | Darwin

Other Formats:

Comma delimited format used in spreadsheet applications
http://www.bom.gov.au/fwo/IDN60901/IDN60901.95770.axf

JavaScript Object Notation format (JSON) in row-major order
http://www.bom.gov.au/fwo/IDN60901/IDN60901.95770.json